sensor_id;sensor_type;location;lat;lon;timestamp;pressure;altitude;pressure_sealevel;temperature;humidity
52105;BME280;38103;42.776;23.112;2023-01-31T00:01:10;93450.16;;;-2.44;97.86
52105;BME280;38103;42.776;23.112;2023-01-31T00:03:37;93427.88;;;-2.53;97.39
52105;BME280;38103;42.776;23.112;2023-01-31T00:06:23;93464.34;;;-2.31;97.30
52105;BME280;38103;42.776;23.112;2023-01-31T00:08:49;93464.53;;;-2.25;97.30
52105;BME280;38103;42.776;23.112;2023-01-31T00:11:17;93461.09;;;-2.17;96.97
52105;BME280;38103;42.776;23.112;2023-01-31T00:13:42;93471.44;;;-2.17;96.79
52105;BME280;38103;42.776;23.112;2023-01-31T00:16:10;93460.47;;;-2.27;97.54
52105;BME280;38103;42.776;23.112;2023-01-31T00:18:36;93468.72;;;-2.32;99.12
52105;BME280;38103;42.776;23.112;2023-01-31T00:21:07;93482.97;;;-2.28;99.35
52105;BME280;38103;42.776;23.112;2023-01-31T00:23:33;93472.09;;;-2.23;99.04
52105;BME280;38103;42.776;23.112;2023-01-31T00:26:08;93475.81;;;-2.17;98.35
52105;BME280;38103;42.776;23.112;2023-01-31T00:28:34;93460.09;;;-2.16;98.52
52105;BME280;38103;42.776;23.112;2023-01-31T00:30:59;93461.03;;;-2.08;98.25
52105;BME280;38103;42.776;23.112;2023-01-31T00:33:25;93464.94;;;-2.04;98.22
52105;BME280;38103;42.776;23.112;2023-01-31T00:35:50;93456.16;;;-2.03;98.02
52105;BME280;38103;42.776;23.112;2023-01-31T00:38:15;93450.66;;;-2.00;97.51
52105;BME280;38103;42.776;23.112;2023-01-31T00:40:41;93439.97;;;-1.97;97.21
52105;BME280;38103;42.776;23.112;2023-01-31T00:43:06;93445.94;;;-1.96;96.58
52105;BME280;38103;42.776;23.112;2023-01-31T00:45:31;93448.03;;;-1.92;95.92
52105;BME280;38103;42.776;23.112;2023-01-31T00:47:57;93439.97;;;-1.97;96.14
52105;BME280;38103;42.776;23.112;2023-01-31T00:50:22;93453.56;;;-2.03;96.68
52105;BME280;38103;42.776;23.112;2023-01-31T00:52:47;93477.81;;;-1.96;95.59
52105;BME280;38103;42.776;23.112;2023-01-31T00:55:13;93460.38;;;-2.02;95.67
52105;BME280;38103;42.776;23.112;2023-01-31T00:57:38;93486.72;;;-1.90;95.14
52105;BME280;38103;42.776;23.112;2023-01-31T01:00:04;93495.94;;;-1.87;94.92
52105;BME280;38103;42.776;23.112;2023-01-31T01:02:30;93490.09;;;-1.81;94.42
52105;BME280;38103;42.776;23.112;2023-01-31T01:04:55;93482.94;;;-1.79;94.95
52105;BME280;38103;42.776;23.112;2023-01-31T01:07:20;93487.50;;;-1.81;95.25
52105;BME280;38103;42.776;23.112;2023-01-31T01:09:46;93476.81;;;-1.86;96.07
52105;BME280;38103;42.776;23.112;2023-01-31T01:12:11;93474.06;;;-1.85;96.42
52105;BME280;38103;42.776;23.112;2023-01-31T01:14:36;93470.03;;;-1.87;96.69
52105;BME280;38103;42.776;23.112;2023-01-31T01:17:02;93463.91;;;-1.95;96.41
52105;BME280;38103;42.776;23.112;2023-01-31T01:19:28;93456.97;;;-2.03;96.22
52105;BME280;38103;42.776;23.112;2023-01-31T01:21:54;93467.13;;;-1.93;94.88
52105;BME280;38103;42.776;23.112;2023-01-31T01:24:20;93450.00;;;-1.94;95.09
52105;BME280;38103;42.776;23.112;2023-01-31T01:26:46;93452.41;;;-1.92;94.81
52105;BME280;38103;42.776;23.112;2023-01-31T01:29:11;93448.31;;;-1.86;94.54
52105;BME280;38103;42.776;23.112;2023-01-31T01:31:38;93412.22;;;-2.20;93.68
52105;BME280;38103;42.776;23.112;2023-01-31T01:34:11;93459.66;;;-1.87;93.91
52105;BME280;38103;42.776;23.112;2023-01-31T01:36:37;93458.84;;;-1.88;94.25
52105;BME280;38103;42.776;23.112;2023-01-31T01:39:04;93450.91;;;-1.86;94.24
52105;BME280;38103;42.776;23.112;2023-01-31T01:41:30;93448.63;;;-1.81;94.95
52105;BME280;38103;42.776;23.112;2023-01-31T01:43:58;93451.84;;;-1.79;95.32
52105;BME280;38103;42.776;23.112;2023-01-31T01:46:34;93454.47;;;-1.87;96.11
52105;BME280;38103;42.776;23.112;2023-01-31T01:49:16;93457.09;;;-1.96;97.85
52105;BME280;38103;42.776;23.112;2023-01-31T01:51:46;93420.94;;;-2.21;98.27
52105;BME280;38103;42.776;23.112;2023-01-31T01:54:16;93411.75;;;-2.32;98.93
52105;BME280;38103;42.776;23.112;2023-01-31T01:56:47;93450.38;;;-2.14;99.05
52105;BME280;38103;42.776;23.112;2023-01-31T01:59:17;93439.56;;;-2.17;98.63
52105;BME280;38103;42.776;23.112;2023-01-31T02:01:45;93428.94;;;-2.31;98.30
52105;BME280;38103;42.776;23.112;2023-01-31T02:04:14;93412.00;;;-2.50;98.25
52105;BME280;38103;42.776;23.112;2023-01-31T02:06:42;93438.63;;;-2.25;98.79
52105;BME280;38103;42.776;23.112;2023-01-31T02:09:13;93440.06;;;-2.22;98.19
52105;BME280;38103;42.776;23.112;2023-01-31T02:11:42;93434.59;;;-2.27;99.11
52105;BME280;38103;42.776;23.112;2023-01-31T02:14:09;93443.00;;;-2.25;98.71
52105;BME280;38103;42.776;23.112;2023-01-31T02:16:35;93424.88;;;-2.33;98.50
52105;BME280;38103;42.776;23.112;2023-01-31T02:19:02;93443.13;;;-2.18;97.59
52105;BME280;38103;42.776;23.112;2023-01-31T02:21:43;93448.97;;;-2.25;96.71
52105;BME280;38103;42.776;23.112;2023-01-31T02:33:03;93454.25;;;-2.09;90.20
52105;BME280;38103;42.776;23.112;2023-01-31T02:41:31;93467.81;;;-1.99;89.73
52105;BME280;38103;42.776;23.112;2023-01-31T02:44:20;93482.34;;;-1.89;90.67
52105;BME280;38103;42.776;23.112;2023-01-31T02:50:23;93494.34;;;-1.88;91.63
52105;BME280;38103;42.776;23.112;2023-01-31T02:55:31;93503.41;;;-1.93;93.14
52105;BME280;38103;42.776;23.112;2023-01-31T02:58:19;93510.88;;;-1.98;94.40
52105;BME280;38103;42.776;23.112;2023-01-31T03:00:46;93508.28;;;-1.98;94.54
52105;BME280;38103;42.776;23.112;2023-01-31T03:03:22;93503.59;;;-2.03;94.35
52105;BME280;38103;42.776;23.112;2023-01-31T03:11:45;93526.78;;;-2.09;95.67
52105;BME280;38103;42.776;23.112;2023-01-31T03:14:30;93526.47;;;-2.06;96.09
52105;BME280;38103;42.776;23.112;2023-01-31T03:17:09;93518.38;;;-2.11;97.33
52105;BME280;38103;42.776;23.112;2023-01-31T03:20:09;93509.50;;;-2.17;99.57
52105;BME280;38103;42.776;23.112;2023-01-31T03:22:45;93525.53;;;-2.22;100.00
52105;BME280;38103;42.776;23.112;2023-01-31T03:25:14;93531.34;;;-2.28;100.00
52105;BME280;38103;42.776;23.112;2023-01-31T03:27:44;93513.88;;;-2.26;100.00
52105;BME280;38103;42.776;23.112;2023-01-31T03:30:16;93521.31;;;-2.31;100.00
52105;BME280;38103;42.776;23.112;2023-01-31T03:32:48;93529.78;;;-2.38;100.00
52105;BME280;38103;42.776;23.112;2023-01-31T03:35:14;93532.34;;;-2.38;100.00
52105;BME280;38103;42.776;23.112;2023-01-31T03:37:49;93533.31;;;-2.47;100.00
52105;BME280;38103;42.776;23.112;2023-01-31T03:40:24;93547.25;;;-2.48;100.00
52105;BME280;38103;42.776;23.112;2023-01-31T03:43:04;93548.84;;;-2.47;100.00
52105;BME280;38103;42.776;23.112;2023-01-31T03:45:40;93549.84;;;-2.48;100.00
52105;BME280;38103;42.776;23.112;2023-01-31T03:48:09;93555.03;;;-2.48;100.00
52105;BME280;38103;42.776;23.112;2023-01-31T03:50:41;93555.16;;;-2.41;100.00
52105;BME280;38103;42.776;23.112;2023-01-31T03:53:13;93556.16;;;-2.42;100.00
52105;BME280;38103;42.776;23.112;2023-01-31T03:55:46;93557.94;;;-2.34;100.00
52105;BME280;38103;42.776;23.112;2023-01-31T03:58:17;93567.13;;;-2.32;100.00
52105;BME280;38103;42.776;23.112;2023-01-31T04:00:45;93574.09;;;-2.32;100.00
52105;BME280;38103;42.776;23.112;2023-01-31T04:03:26;93574.75;;;-2.30;100.00
52105;BME280;38103;42.776;23.112;2023-01-31T04:05:53;93571.66;;;-2.34;100.00
52105;BME280;38103;42.776;23.112;2023-01-31T04:08:19;93572.78;;;-2.37;100.00
52105;BME280;38103;42.776;23.112;2023-01-31T04:10:45;93580.41;;;-2.43;100.00
52105;BME280;38103;42.776;23.112;2023-01-31T04:13:10;93583.19;;;-2.45;100.00
52105;BME280;38103;42.776;23.112;2023-01-31T04:15:36;93590.59;;;-2.42;100.00
52105;BME280;38103;42.776;23.112;2023-01-31T04:18:01;93585.91;;;-2.47;100.00
52105;BME280;38103;42.776;23.112;2023-01-31T04:20:27;93591.91;;;-2.46;100.00
52105;BME280;38103;42.776;23.112;2023-01-31T04:22:52;93595.13;;;-2.44;100.00
52105;BME280;38103;42.776;23.112;2023-01-31T04:25:17;93596.44;;;-2.40;100.00
52105;BME280;38103;42.776;23.112;2023-01-31T04:27:43;93607.13;;;-2.43;100.00
52105;BME280;38103;42.776;23.112;2023-01-31T04:30:09;93603.88;;;-2.45;100.00
52105;BME280;38103;42.776;23.112;2023-01-31T04:32:34;93607.75;;;-2.49;100.00
52105;BME280;38103;42.776;23.112;2023-01-31T04:34:59;93598.03;;;-2.47;100.00
52105;BME280;38103;42.776;23.112;2023-01-31T04:37:25;93600.63;;;-2.47;100.00
52105;BME280;38103;42.776;23.112;2023-01-31T04:39:50;93608.41;;;-2.47;100.00
52105;BME280;38103;42.776;23.112;2023-01-31T04:42:15;93604.22;;;-2.48;100.00
52105;BME280;38103;42.776;23.112;2023-01-31T04:44:41;93603.56;;;-2.50;100.00
52105;BME280;38103;42.776;23.112;2023-01-31T04:47:06;93605.03;;;-2.48;100.00
52105;BME280;38103;42.776;23.112;2023-01-31T04:49:32;93599.03;;;-2.40;100.00
52105;BME280;38103;42.776;23.112;2023-01-31T04:51:57;93600.50;;;-2.45;100.00
52105;BME280;38103;42.776;23.112;2023-01-31T04:54:22;93592.88;;;-2.39;100.00
52105;BME280;38103;42.776;23.112;2023-01-31T04:56:48;93599.50;;;-2.28;100.00
52105;BME280;38103;42.776;23.112;2023-01-31T04:59:13;93605.81;;;-2.30;100.00
52105;BME280;38103;42.776;23.112;2023-01-31T05:01:38;93602.59;;;-2.32;100.00
52105;BME280;38103;42.776;23.112;2023-01-31T05:04:06;93592.69;;;-2.29;100.00
52105;BME280;38103;42.776;23.112;2023-01-31T05:06:31;93582.50;;;-2.22;100.00
52105;BME280;38103;42.776;23.112;2023-01-31T05:08:57;93599.19;;;-2.25;100.00
52105;BME280;38103;42.776;23.112;2023-01-31T05:11:26;93605.13;;;-2.24;100.00
52105;BME280;38103;42.776;23.112;2023-01-31T05:13:51;93596.72;;;-2.18;100.00
52105;BME280;38103;42.776;23.112;2023-01-31T05:16:17;93592.69;;;-2.12;100.00
52105;BME280;38103;42.776;23.112;2023-01-31T05:18:42;93589.44;;;-2.14;100.00
52105;BME280;38103;42.776;23.112;2023-01-31T05:21:09;93583.78;;;-2.18;100.00
52105;BME280;38103;42.776;23.112;2023-01-31T05:23:34;93594.13;;;-2.18;100.00
52105;BME280;38103;42.776;23.112;2023-01-31T05:26:00;93601.59;;;-2.15;100.00
52105;BME280;38103;42.776;23.112;2023-01-31T05:28:25;93604.19;;;-2.15;100.00
52105;BME280;38103;42.776;23.112;2023-01-31T05:30:52;93611.31;;;-2.17;100.00
52105;BME280;38103;42.776;23.112;2023-01-31T05:33:17;93610.66;;;-2.27;100.00
52105;BME280;38103;42.776;23.112;2023-01-31T05:35:46;93615.50;;;-2.24;100.00
52105;BME280;38103;42.776;23.112;2023-01-31T05:38:11;93620.34;;;-2.21;100.00
52105;BME280;38103;42.776;23.112;2023-01-31T05:40:37;93620.03;;;-2.18;100.00
52105;BME280;38103;42.776;23.112;2023-01-31T05:43:03;93626.53;;;-2.22;100.00
52105;BME280;38103;42.776;23.112;2023-01-31T05:45:29;93620.34;;;-2.21;100.00
52105;BME280;38103;42.776;23.112;2023-01-31T05:47:54;93626.84;;;-2.17;100.00
52105;BME280;38103;42.776;23.112;2023-01-31T05:50:21;93628.94;;;-2.12;100.00
52105;BME280;38103;42.776;23.112;2023-01-31T05:52:55;93623.44;;;-2.09;100.00
52105;BME280;38103;42.776;23.112;2023-01-31T05:55:21;93625.34;;;-2.03;100.00
52105;BME280;38103;42.776;23.112;2023-01-31T05:57:47;93634.56;;;-1.92;100.00
52105;BME280;38103;42.776;23.112;2023-01-31T06:00:13;93636.53;;;-1.94;100.00
52105;BME280;38103;42.776;23.112;2023-01-31T06:02:40;93646.22;;;-1.87;100.00
52105;BME280;38103;42.776;23.112;2023-01-31T06:05:06;93641.53;;;-1.92;100.00
52105;BME280;38103;42.776;23.112;2023-01-31T06:07:32;93636.19;;;-1.91;100.00
52105;BME280;38103;42.776;23.112;2023-01-31T06:09:57;93643.63;;;-1.79;100.00
52105;BME280;38103;42.776;23.112;2023-01-31T06:12:23;93654.59;;;-1.69;100.00
52105;BME280;38103;42.776;23.112;2023-01-31T06:14:48;93624.84;;;-1.81;100.00
52105;BME280;38103;42.776;23.112;2023-01-31T06:17:14;93658.78;;;-1.59;100.00
52105;BME280;38103;42.776;23.112;2023-01-31T06:19:40;93671.44;;;-1.64;100.00
52105;BME280;38103;42.776;23.112;2023-01-31T06:22:05;93666.88;;;-1.62;100.00
52105;BME280;38103;42.776;23.112;2023-01-31T06:24:30;93654.94;;;-1.72;100.00
52105;BME280;38103;42.776;23.112;2023-01-31T06:26:56;93669.03;;;-1.66;100.00
52105;BME280;38103;42.776;23.112;2023-01-31T06:29:21;93676.63;;;-1.64;100.00
52105;BME280;38103;42.776;23.112;2023-01-31T06:31:46;93678.56;;;-1.58;100.00
52105;BME280;38103;42.776;23.112;2023-01-31T06:34:12;93674.84;;;-1.55;100.00
52105;BME280;38103;42.776;23.112;2023-01-31T06:36:37;93678.88;;;-1.53;100.00
52105;BME280;38103;42.776;23.112;2023-01-31T06:39:03;93673.38;;;-1.50;100.00
52105;BME280;38103;42.776;23.112;2023-01-31T06:41:28;93665.94;;;-1.61;100.00
52105;BME280;38103;42.776;23.112;2023-01-31T06:43:54;93659.47;;;-1.65;100.00
52105;BME280;38103;42.776;23.112;2023-01-31T06:46:20;93641.47;;;-1.67;100.00
52105;BME280;38103;42.776;23.112;2023-01-31T06:48:45;93670.91;;;-1.51;100.00
52105;BME280;38103;42.776;23.112;2023-01-31T06:51:13;93674.00;;;-1.48;100.00
52105;BME280;38103;42.776;23.112;2023-01-31T06:53:39;93671.53;;;-1.41;100.00
52105;BME280;38103;42.776;23.112;2023-01-31T06:56:04;93675.91;;;-1.33;100.00
52105;BME280;38103;42.776;23.112;2023-01-31T06:58:30;93677.34;;;-1.30;100.00
52105;BME280;38103;42.776;23.112;2023-01-31T07:01:03;93668.09;;;-1.25;100.00
52105;BME280;38103;42.776;23.112;2023-01-31T07:03:29;93681.88;;;-1.24;100.00
52105;BME280;38103;42.776;23.112;2023-01-31T07:05:54;93642.25;;;-1.50;100.00
52105;BME280;38103;42.776;23.112;2023-01-31T07:08:19;93664.69;;;-1.25;100.00
52105;BME280;38103;42.776;23.112;2023-01-31T07:10:47;93676.53;;;-1.31;100.00
52105;BME280;38103;42.776;23.112;2023-01-31T07:13:12;93679.81;;;-1.37;100.00
52105;BME280;38103;42.776;23.112;2023-01-31T07:15:37;93677.53;;;-1.40;100.00
52105;BME280;38103;42.776;23.112;2023-01-31T07:18:03;93682.25;;;-1.44;100.00
52105;BME280;38103;42.776;23.112;2023-01-31T07:20:28;93685.16;;;-1.39;100.00
52105;BME280;38103;42.776;23.112;2023-01-31T07:22:57;93680.13;;;-1.32;100.00
52105;BME280;38103;42.776;23.112;2023-01-31T07:25:24;93675.72;;;-1.31;100.00
52105;BME280;38103;42.776;23.112;2023-01-31T07:27:49;93675.88;;;-1.25;100.00
52105;BME280;38103;42.776;23.112;2023-01-31T07:30:15;93668.13;;;-1.33;100.00
52105;BME280;38103;42.776;23.112;2023-01-31T07:32:40;93674.25;;;-1.26;100.00
52105;BME280;38103;42.776;23.112;2023-01-31T07:35:06;93671.00;;;-1.28;100.00
52105;BME280;38103;42.776;23.112;2023-01-31T07:37:32;93672.97;;;-1.30;100.00
52105;BME280;38103;42.776;23.112;2023-01-31T07:39:57;93672.63;;;-1.27;100.00
52105;BME280;38103;42.776;23.112;2023-01-31T07:42:22;93671.28;;;-1.14;100.00
52105;BME280;38103;42.776;23.112;2023-01-31T07:44:48;93663.47;;;-1.06;100.00
52105;BME280;38103;42.776;23.112;2023-01-31T07:47:13;93677.09;;;-1.04;100.00
52105;BME280;38103;42.776;23.112;2023-01-31T07:49:38;93686.78;;;-0.97;100.00
52105;BME280;38103;42.776;23.112;2023-01-31T07:52:04;93684.47;;;-0.92;100.00
52105;BME280;38103;42.776;23.112;2023-01-31T07:54:29;93684.97;;;-0.88;100.00
52105;BME280;38103;42.776;23.112;2023-01-31T07:56:55;93675.84;;;-0.84;100.00
52105;BME280;38103;42.776;23.112;2023-01-31T07:59:20;93674.03;;;-0.75;100.00
52105;BME280;38103;42.776;23.112;2023-01-31T08:01:45;93681.19;;;-0.54;100.00
52105;BME280;38103;42.776;23.112;2023-01-31T08:04:29;93684.88;;;-0.48;100.00
52105;BME280;38103;42.776;23.112;2023-01-31T08:06:55;93693.09;;;-0.36;100.00
52105;BME280;38103;42.776;23.112;2023-01-31T08:09:21;93689.13;;;-0.24;100.00
52105;BME280;38103;42.776;23.112;2023-01-31T08:11:47;93692.16;;;-0.20;100.00
52105;BME280;38103;42.776;23.112;2023-01-31T08:14:13;93701.59;;;-0.19;100.00
52105;BME280;38103;42.776;23.112;2023-01-31T08:16:38;93703.88;;;-0.24;100.00
52105;BME280;38103;42.776;23.112;2023-01-31T08:19:04;93697.88;;;-0.25;100.00
52105;BME280;38103;42.776;23.112;2023-01-31T08:21:30;93665.84;;;-0.64;100.00
52105;BME280;38103;42.776;23.112;2023-01-31T08:23:55;93688.00;;;-0.53;100.00
52105;BME280;38103;42.776;23.112;2023-01-31T08:26:21;93713.41;;;-0.40;100.00
52105;BME280;38103;42.776;23.112;2023-01-31T08:28:48;93712.16;;;-0.44;100.00
52105;BME280;38103;42.776;23.112;2023-01-31T08:31:19;93705.91;;;-0.35;100.00
52105;BME280;38103;42.776;23.112;2023-01-31T08:33:44;93702.97;;;-0.31;100.00
52105;BME280;38103;42.776;23.112;2023-01-31T08:36:19;93697.59;;;-0.30;100.00
52105;BME280;38103;42.776;23.112;2023-01-31T08:38:45;93694.13;;;-0.22;100.00
52105;BME280;38103;42.776;23.112;2023-01-31T08:41:12;93695.38;;;-0.18;100.00
52105;BME280;38103;42.776;23.112;2023-01-31T08:43:37;93674.59;;;-0.18;100.00
52105;BME280;38103;42.776;23.112;2023-01-31T08:46:04;93685.78;;;0.06;100.00
52105;BME280;38103;42.776;23.112;2023-01-31T08:48:36;93686.72;;;0.29;100.00
52105;BME280;38103;42.776;23.112;2023-01-31T08:51:03;93692.66;;;0.38;100.00
52105;BME280;38103;42.776;23.112;2023-01-31T08:53:29;93689.44;;;0.66;100.00
52105;BME280;38103;42.776;23.112;2023-01-31T08:55:59;93658.78;;;0.76;100.00
52105;BME280;38103;42.776;23.112;2023-01-31T08:58:24;93677.78;;;1.29;100.00
52105;BME280;38103;42.776;23.112;2023-01-31T09:00:50;93642.50;;;1.27;100.00
52105;BME280;38103;42.776;23.112;2023-01-31T09:03:15;93680.13;;;1.61;100.00
52105;BME280;38103;42.776;23.112;2023-01-31T09:05:43;93678.44;;;1.75;99.80
52105;BME280;38103;42.776;23.112;2023-01-31T09:08:09;93658.84;;;1.80;97.59
52105;BME280;38103;42.776;23.112;2023-01-31T09:10:35;93666.06;;;2.06;98.50
52105;BME280;38103;42.776;23.112;2023-01-31T09:13:00;93653.28;;;2.11;95.64
52105;BME280;38103;42.776;23.112;2023-01-31T09:15:26;93666.44;;;2.25;97.37
52105;BME280;38103;42.776;23.112;2023-01-31T09:17:51;93664.31;;;2.42;95.48
52105;BME280;38103;42.776;23.112;2023-01-31T09:20:17;93660.38;;;2.53;96.02
52105;BME280;38103;42.776;23.112;2023-01-31T09:22:43;93664.38;;;2.49;95.53
52105;BME280;38103;42.776;23.112;2023-01-31T09:25:09;93658.56;;;2.47;94.10
52105;BME280;38103;42.776;23.112;2023-01-31T09:27:36;93650.31;;;2.50;95.64
52105;BME280;38103;42.776;23.112;2023-01-31T09:30:08;93646.13;;;2.49;94.53
52105;BME280;38103;42.776;23.112;2023-01-31T09:32:34;93648.38;;;2.23;95.07
52105;BME280;38103;42.776;23.112;2023-01-31T09:34:59;93638.97;;;2.29;96.89
52105;BME280;38103;42.776;23.112;2023-01-31T09:37:25;93630.19;;;2.37;97.65
52105;BME280;38103;42.776;23.112;2023-01-31T09:39:52;93629.84;;;2.47;95.84
52105;BME280;38103;42.776;23.112;2023-01-31T09:42:28;93610.03;;;2.60;94.43
52105;BME280;38103;42.776;23.112;2023-01-31T09:47:25;93629.69;;;3.05;91.68
52105;BME280;38103;42.776;23.112;2023-01-31T09:52:43;93626.84;;;2.86;91.74
52105;BME280;38103;42.776;23.112;2023-01-31T09:55:15;93628.59;;;2.78;94.02
52105;BME280;38103;42.776;23.112;2023-01-31T09:58:23;93635.13;;;2.61;93.70
52105;BME280;38103;42.776;23.112;2023-01-31T10:01:43;93581.16;;;2.26;93.91
52105;BME280;38103;42.776;23.112;2023-01-31T10:06:24;93602.97;;;2.18;94.19
52105;BME280;38103;42.776;23.112;2023-01-31T10:09:07;93611.09;;;2.01;96.31
52105;BME280;38103;42.776;23.112;2023-01-31T10:11:54;93612.31;;;2.05;98.34
52105;BME280;38103;42.776;23.112;2023-01-31T10:14:46;93600.88;;;2.06;97.06
52105;BME280;38103;42.776;23.112;2023-01-31T10:17:30;93606.41;;;2.18;97.98
52105;BME280;38103;42.776;23.112;2023-01-31T10:22:37;93587.19;;;2.26;96.94
52105;BME280;38103;42.776;23.112;2023-01-31T10:25:38;93577.56;;;2.27;96.16
52105;BME280;38103;42.776;23.112;2023-01-31T10:30:55;93594.88;;;2.34;98.57
52105;BME280;38103;42.776;23.112;2023-01-31T10:36:27;93598.47;;;2.33;96.02
52105;BME280;38103;42.776;23.112;2023-01-31T10:41:48;93598.94;;;2.44;96.31
52105;BME280;38103;42.776;23.112;2023-01-31T10:44:23;93602.59;;;2.56;95.87
52105;BME280;38103;42.776;23.112;2023-01-31T10:46:54;93552.59;;;2.10;94.67
52105;BME280;38103;42.776;23.112;2023-01-31T10:49:23;93593.47;;;2.39;94.07
52105;BME280;38103;42.776;23.112;2023-01-31T10:57:38;93592.16;;;2.21;96.76
52105;BME280;38103;42.776;23.112;2023-01-31T11:00:04;93598.09;;;2.08;97.34
52105;BME280;38103;42.776;23.112;2023-01-31T11:02:30;93588.19;;;1.96;96.28
52105;BME280;38103;42.776;23.112;2023-01-31T11:04:58;93589.66;;;1.77;98.80
52105;BME280;38103;42.776;23.112;2023-01-31T11:07:28;93599.34;;;1.61;99.54
52105;BME280;38103;42.776;23.112;2023-01-31T11:09:54;93599.34;;;1.61;100.00
52105;BME280;38103;42.776;23.112;2023-01-31T11:12:38;93598.91;;;1.58;100.00
52105;BME280;38103;42.776;23.112;2023-01-31T11:15:15;93607.53;;;1.58;100.00
52105;BME280;38103;42.776;23.112;2023-01-31T11:17:41;93613.38;;;1.60;100.00
52105;BME280;38103;42.776;23.112;2023-01-31T11:20:43;93611.28;;;1.49;100.00
52105;BME280;38103;42.776;23.112;2023-01-31T11:23:04;93604.81;;;1.22;100.00
52105;BME280;38103;42.776;23.112;2023-01-31T11:25:32;93616.91;;;0.93;100.00
52105;BME280;38103;42.776;23.112;2023-01-31T11:28:04;93618.00;;;0.84;100.00
52105;BME280;38103;42.776;23.112;2023-01-31T11:30:40;93617.84;;;0.70;100.00
52105;BME280;38103;42.776;23.112;2023-01-31T11:33:06;93576.88;;;0.42;100.00
52105;BME280;38103;42.776;23.112;2023-01-31T11:35:33;93620.53;;;0.77;100.00
52105;BME280;38103;42.776;23.112;2023-01-31T11:38:18;93630.50;;;0.73;100.00
52105;BME280;38103;42.776;23.112;2023-01-31T11:40:47;93630.84;;;0.70;100.00
52105;BME280;38103;42.776;23.112;2023-01-31T11:45:42;93621.34;;;0.62;100.00
52105;BME280;38103;42.776;23.112;2023-01-31T11:48:16;93619.00;;;0.68;100.00
52105;BME280;38103;42.776;23.112;2023-01-31T11:50:53;93620.19;;;0.65;100.00
52105;BME280;38103;42.776;23.112;2023-01-31T11:53:37;93618.59;;;0.64;100.00
52105;BME280;38103;42.776;23.112;2023-01-31T11:56:26;93617.31;;;0.60;100.00
52105;BME280;38103;42.776;23.112;2023-01-31T11:58:56;93616.06;;;0.55;100.00
52105;BME280;38103;42.776;23.112;2023-01-31T12:01:25;93627.72;;;0.60;100.00
52105;BME280;38103;42.776;23.112;2023-01-31T12:04:02;93617.94;;;0.77;100.00
52105;BME280;38103;42.776;23.112;2023-01-31T12:06:36;93610.53;;;0.96;100.00
52105;BME280;38103;42.776;23.112;2023-01-31T12:09:20;93611.84;;;1.07;100.00
52105;BME280;38103;42.776;23.112;2023-01-31T12:12:00;93615.56;;;0.97;100.00
52105;BME280;38103;42.776;23.112;2023-01-31T12:14:40;93617.44;;;1.04;100.00
52105;BME280;38103;42.776;23.112;2023-01-31T12:17:11;93619.59;;;1.00;100.00
52105;BME280;38103;42.776;23.112;2023-01-31T12:20:06;93615.81;;;1.03;100.00
52105;BME280;38103;42.776;23.112;2023-01-31T12:22:47;93617.28;;;0.90;100.00
52105;BME280;38103;42.776;23.112;2023-01-31T12:25:45;93615.88;;;0.87;100.00
52105;BME280;38103;42.776;23.112;2023-01-31T12:43:06;93614.25;;;0.71;100.00
52105;BME280;38103;42.776;23.112;2023-01-31T12:45:52;93619.63;;;0.70;100.00
52105;BME280;38103;42.776;23.112;2023-01-31T12:54:01;93604.78;;;1.00;100.00
52105;BME280;38103;42.776;23.112;2023-01-31T13:01:58;93597.34;;;0.97;100.00
52105;BME280;38103;42.776;23.112;2023-01-31T13:04:40;93593.38;;;1.02;100.00
52105;BME280;38103;42.776;23.112;2023-01-31T13:07:31;93601.44;;;1.07;100.00
52105;BME280;38103;42.776;23.112;2023-01-31T13:10:02;93593.38;;;1.02;100.00
52105;BME280;38103;42.776;23.112;2023-01-31T13:12:31;93598.44;;;0.88;100.00
52105;BME280;38103;42.776;23.112;2023-01-31T13:15:09;93590.88;;;0.93;100.00
52105;BME280;38103;42.776;23.112;2023-01-31T13:17:39;93600.88;;;0.89;100.00
52105;BME280;38103;42.776;23.112;2023-01-31T13:22:56;93586.84;;;0.91;100.00
52105;BME280;38103;42.776;23.112;2023-01-31T13:25:48;93603.56;;;0.81;100.00
52105;BME280;38103;42.776;23.112;2023-01-31T13:28:25;93603.84;;;0.71;100.00
52105;BME280;38103;42.776;23.112;2023-01-31T13:30:57;93613.38;;;0.64;100.00
52105;BME280;38103;42.776;23.112;2023-01-31T13:33:42;93604.22;;;0.53;100.00
52105;BME280;38103;42.776;23.112;2023-01-31T13:39:08;93607.81;;;0.67;100.00
52105;BME280;38103;42.776;23.112;2023-01-31T13:41:36;93600.19;;;0.65;100.00
52105;BME280;38103;42.776;23.112;2023-01-31T13:44:04;93603.41;;;0.68;100.00
52105;BME280;38103;42.776;23.112;2023-01-31T13:46:36;93599.00;;;0.68;100.00
52105;BME280;38103;42.776;23.112;2023-01-31T13:49:13;93610.91;;;0.77;100.00
52105;BME280;38103;42.776;23.112;2023-01-31T13:51:48;93613.16;;;0.81;100.00
52105;BME280;38103;42.776;23.112;2023-01-31T13:54:36;93612.19;;;0.82;100.00
52105;BME280;38103;42.776;23.112;2023-01-31T13:57:04;93576.06;;;0.57;100.00
52105;BME280;38103;42.776;23.112;2023-01-31T13:59:33;93616.78;;;0.80;100.00
52105;BME280;38103;42.776;23.112;2023-01-31T14:02:00;93611.19;;;0.83;100.00
52105;BME280;38103;42.776;23.112;2023-01-31T14:04:33;93616.03;;;0.86;100.00
52105;BME280;38103;42.776;23.112;2023-01-31T14:27:19;93610.69;;;0.42;100.00
52105;BME280;38103;42.776;23.112;2023-01-31T14:29:59;93627.28;;;0.41;100.00
52105;BME280;38103;42.776;23.112;2023-01-31T14:32:47;93630.94;;;0.31;100.00
52105;BME280;38103;42.776;23.112;2023-01-31T14:37:54;93634.63;;;0.22;100.00
52105;BME280;38103;42.776;23.112;2023-01-31T14:43:53;93648.44;;;0.07;100.00
52105;BME280;38103;42.776;23.112;2023-01-31T14:46:41;93641.75;;;-0.10;100.00
52105;BME280;38103;42.776;23.112;2023-01-31T14:49:46;93661.56;;;-0.09;100.00
52105;BME280;38103;42.776;23.112;2023-01-31T14:52:23;93672.22;;;-0.04;100.00
52105;BME280;38103;42.776;23.112;2023-01-31T14:57:39;93589.00;;;-0.73;100.00